Terminal Aerodrome Forecast
Issued by NWS

Home | Current Version | Previous Version | Graphics & Text | Print | Product List | Glossary On
Versions: 1 2 3 4 5 6 7 8 9 10 11 12 13 14
000
FTUS42 KMHX 242337
TAFISO
TAF
KISO 242337Z 2500/2524 19007KT P6SM SCT050 SCT070
     FM250300 00000KT 5SM BR BKN100
     FM251200 VRB03KT P6SM BKN100
     FM252000 16005KT P6SM VCTS BKN050CB
      AMD LTD TO CLD VIS AND WIND=

USA.gov is the U.S. government's official web portal to all federal, state and local government web resources and services.